Аэропорт: Елизово. Петропавловск-Камчатский

ICAO: UHPP

METAR:
2018/09/19 07:30
UHPP 190730Z 01002MPS 9999 NSC 11/07 Q1003 R34L/CLRD70 NOSIG RMK MT OBSC QFE748/0998
METAR:
2018/09/19 06:22
TAF UHPP 190456Z 1906/2012 20003G12MPS 9999 SCT040CB OVC060 
      TEMPO 1906/1912 18003G12MPS 5000 -SHRA BR BKN007 OVC015CB 
      TEMPO 1912/1923 1000 SHRA BR VV003 
     FM192300 18003G12MPS 9999 BKN025CB OVC060 
      TEMPO 1923/2012 2000 -SHRA BR BKN005 OVC015CB